Terminal Aerodrome Forecast
Issued by NWS Atlanta, GA

Home | Current Version | Previous Version | Text Only | Print | Product List | Glossary On
Versions: 1 2 3 4 5 6 7 8 9 10 11 12 13 14 15 16 17 18 19 20 21 22 23 24 25 26 27 28 29 30 31 32 33 34 35 36 37 38 39 40 41 42 43 44
000
FTUS42 KFFC 250527
TAFATL
TAF
KATL 250527Z 2506/2612 10006KT P6SM BKN006
     FM251200 10005KT 5SM BR OVC006
     FM251600 09005KT P6SM OVC015
     FM251900 10005KT P6SM SHRA OVC035 PROB30 2520/2602 5SM TSRA BR
      BKN025CB
     FM260300 12004KT P6SM OVC035
     FM260600 16004KT P6SM BKN015
     FM261000 VRB03KT P6SM OVC005=

USA.gov is the U.S. government's official web portal to all federal, state and local government web resources and services.